Terminal Aerodrome Forecast
Issued by NWS

Home | Current Version | Previous Version | Graphics & Text | Print | Product List | Glossary On
Versions: 1 2 3 4 5 6 7 8 9 10 11 12 13 14 15 16 17 18 19 20
006
FTUS42 KMHX 281406 AAA
TAFOAJ
TAF AMD
KOAJ 281406Z 2814/2912 03005KT P6SM BKN012
     FM281530 03006KT P6SM VCSH BKN035
     FM282100 VRB04KT P6SM BKN050
     FM290800 00000KT 5SM BR BKN008
      AMD LTD TO CLD VIS AND WIND=

USA.gov is the U.S. government's official web portal to all federal, state and local government web resources and services.